sensor_id;sensor_type;location;lat;lon;timestamp;P1;durP1;ratioP1;P2;durP2;ratioP2
7471;SDS011;3777;48.722;8.110;2022-12-10T00:01:20;28.60;;;20.47;;
7471;SDS011;3777;48.722;8.110;2022-12-10T00:03:48;27.27;;;18.33;;
7471;SDS011;3777;48.722;8.110;2022-12-10T00:06:16;26.00;;;18.97;;
7471;SDS011;3777;48.722;8.110;2022-12-10T00:08:46;22.53;;;18.17;;
7471;SDS011;3777;48.722;8.110;2022-12-10T00:11:14;22.87;;;17.73;;
7471;SDS011;3777;48.722;8.110;2022-12-10T00:13:42;22.70;;;17.80;;
7471;SDS011;3777;48.722;8.110;2022-12-10T00:16:12;23.77;;;18.67;;
7471;SDS011;3777;48.722;8.110;2022-12-10T00:18:41;22.80;;;17.43;;
7471;SDS011;3777;48.722;8.110;2022-12-10T00:21:09;25.00;;;18.33;;
7471;SDS011;3777;48.722;8.110;2022-12-10T00:23:37;24.90;;;17.97;;
7471;SDS011;3777;48.722;8.110;2022-12-10T00:26:07;24.97;;;18.57;;
7471;SDS011;3777;48.722;8.110;2022-12-10T00:28:36;24.93;;;17.43;;
7471;SDS011;3777;48.722;8.110;2022-12-10T00:31:03;23.47;;;17.53;;
7471;SDS011;3777;48.722;8.110;2022-12-10T00:33:31;23.83;;;18.07;;
7471;SDS011;3777;48.722;8.110;2022-12-10T00:36:02;26.10;;;19.67;;
7471;SDS011;3777;48.722;8.110;2022-12-10T00:38:30;27.17;;;19.50;;
7471;SDS011;3777;48.722;8.110;2022-12-10T00:40:58;25.87;;;19.10;;
7471;SDS011;3777;48.722;8.110;2022-12-10T00:43:26;25.60;;;18.63;;
7471;SDS011;3777;48.722;8.110;2022-12-10T00:45:53;24.97;;;18.77;;
7471;SDS011;3777;48.722;8.110;2022-12-10T00:48:21;29.43;;;19.53;;
7471;SDS011;3777;48.722;8.110;2022-12-10T00:50:54;27.40;;;18.60;;
7471;SDS011;3777;48.722;8.110;2022-12-10T00:53:22;27.13;;;19.00;;
7471;SDS011;3777;48.722;8.110;2022-12-10T00:55:49;29.40;;;19.47;;
7471;SDS011;3777;48.722;8.110;2022-12-10T00:58:16;27.63;;;19.13;;
7471;SDS011;3777;48.722;8.110;2022-12-10T01:00:45;25.80;;;18.27;;
7471;SDS011;3777;48.722;8.110;2022-12-10T01:03:12;25.23;;;18.80;;
7471;SDS011;3777;48.722;8.110;2022-12-10T01:05:39;26.80;;;18.53;;
7471;SDS011;3777;48.722;8.110;2022-12-10T01:08:06;25.10;;;18.97;;
7471;SDS011;3777;48.722;8.110;2022-12-10T01:10:33;25.73;;;18.17;;
7471;SDS011;3777;48.722;8.110;2022-12-10T01:13:01;28.77;;;19.90;;
7471;SDS011;3777;48.722;8.110;2022-12-10T01:15:28;27.53;;;18.87;;
7471;SDS011;3777;48.722;8.110;2022-12-10T01:17:56;27.53;;;19.13;;
7471;SDS011;3777;48.722;8.110;2022-12-10T01:20:23;28.27;;;19.60;;
7471;SDS011;3777;48.722;8.110;2022-12-10T01:22:50;25.80;;;18.00;;
7471;SDS011;3777;48.722;8.110;2022-12-10T01:25:17;27.70;;;19.10;;
7471;SDS011;3777;48.722;8.110;2022-12-10T01:27:44;28.17;;;18.33;;
7471;SDS011;3777;48.722;8.110;2022-12-10T01:30:11;26.77;;;18.67;;
7471;SDS011;3777;48.722;8.110;2022-12-10T01:32:38;28.63;;;19.33;;
7471;SDS011;3777;48.722;8.110;2022-12-10T01:35:07;29.87;;;18.57;;
7471;SDS011;3777;48.722;8.110;2022-12-10T01:37:34;28.47;;;18.97;;
7471;SDS011;3777;48.722;8.110;2022-12-10T01:40:01;27.97;;;19.53;;
7471;SDS011;3777;48.722;8.110;2022-12-10T01:42:28;27.73;;;19.07;;
7471;SDS011;3777;48.722;8.110;2022-12-10T01:44:57;27.20;;;18.80;;
7471;SDS011;3777;48.722;8.110;2022-12-10T01:47:27;27.70;;;18.70;;
7471;SDS011;3777;48.722;8.110;2022-12-10T01:49:54;26.90;;;18.80;;
7471;SDS011;3777;48.722;8.110;2022-12-10T01:52:22;29.10;;;19.73;;
7471;SDS011;3777;48.722;8.110;2022-12-10T01:54:49;26.43;;;18.97;;
7471;SDS011;3777;48.722;8.110;2022-12-10T01:57:17;30.47;;;19.57;;
7471;SDS011;3777;48.722;8.110;2022-12-10T01:59:47;26.07;;;18.40;;
7471;SDS011;3777;48.722;8.110;2022-12-10T02:02:19;25.87;;;18.73;;
7471;SDS011;3777;48.722;8.110;2022-12-10T02:04:57;25.47;;;18.60;;
7471;SDS011;3777;48.722;8.110;2022-12-10T02:07:35;27.87;;;19.63;;
7471;SDS011;3777;48.722;8.110;2022-12-10T02:10:12;25.60;;;17.83;;
7471;SDS011;3777;48.722;8.110;2022-12-10T02:12:46;29.93;;;19.30;;
7471;SDS011;3777;48.722;8.110;2022-12-10T02:15:16;31.50;;;20.67;;
7471;SDS011;3777;48.722;8.110;2022-12-10T02:17:48;29.77;;;20.30;;
7471;SDS011;3777;48.722;8.110;2022-12-10T02:20:18;30.63;;;20.97;;
7471;SDS011;3777;48.722;8.110;2022-12-10T02:22:51;28.23;;;19.83;;
7471;SDS011;3777;48.722;8.110;2022-12-10T02:25:24;29.73;;;19.40;;
7471;SDS011;3777;48.722;8.110;2022-12-10T02:28:01;31.20;;;19.17;;
7471;SDS011;3777;48.722;8.110;2022-12-10T02:30:33;28.67;;;19.90;;
7471;SDS011;3777;48.722;8.110;2022-12-10T02:33:02;29.13;;;20.07;;
7471;SDS011;3777;48.722;8.110;2022-12-10T02:35:33;27.57;;;19.17;;
7471;SDS011;3777;48.722;8.110;2022-12-10T02:38:07;28.87;;;19.50;;
7471;SDS011;3777;48.722;8.110;2022-12-10T02:40:37;26.73;;;19.27;;
7471;SDS011;3777;48.722;8.110;2022-12-10T02:43:06;30.97;;;20.40;;
7471;SDS011;3777;48.722;8.110;2022-12-10T02:45:36;31.57;;;21.47;;
7471;SDS011;3777;48.722;8.110;2022-12-10T02:48:04;28.87;;;19.73;;
7471;SDS011;3777;48.722;8.110;2022-12-10T02:50:32;28.90;;;20.37;;
7471;SDS011;3777;48.722;8.110;2022-12-10T02:53:00;26.97;;;19.43;;
7471;SDS011;3777;48.722;8.110;2022-12-10T02:55:27;28.77;;;18.67;;
7471;SDS011;3777;48.722;8.110;2022-12-10T02:58:03;27.87;;;19.67;;
7471;SDS011;3777;48.722;8.110;2022-12-10T03:00:41;29.57;;;19.53;;
7471;SDS011;3777;48.722;8.110;2022-12-10T03:06:05;29.87;;;19.43;;
7471;SDS011;3777;48.722;8.110;2022-12-10T03:08:39;26.93;;;19.30;;
7471;SDS011;3777;48.722;8.110;2022-12-10T03:11:12;27.93;;;18.77;;
7471;SDS011;3777;48.722;8.110;2022-12-10T03:13:43;26.90;;;18.63;;
7471;SDS011;3777;48.722;8.110;2022-12-10T03:16:17;30.57;;;19.37;;
7471;SDS011;3777;48.722;8.110;2022-12-10T03:18:48;25.60;;;18.47;;
7471;SDS011;3777;48.722;8.110;2022-12-10T03:21:20;26.77;;;19.13;;
7471;SDS011;3777;48.722;8.110;2022-12-10T03:23:48;28.57;;;19.93;;
7471;SDS011;3777;48.722;8.110;2022-12-10T03:26:16;28.50;;;19.47;;
7471;SDS011;3777;48.722;8.110;2022-12-10T03:28:46;27.67;;;19.43;;
7471;SDS011;3777;48.722;8.110;2022-12-10T03:31:16;26.23;;;18.30;;
7471;SDS011;3777;48.722;8.110;2022-12-10T03:33:45;26.97;;;18.73;;
7471;SDS011;3777;48.722;8.110;2022-12-10T03:36:13;25.80;;;18.13;;
7471;SDS011;3777;48.722;8.110;2022-12-10T03:38:42;27.73;;;19.50;;
7471;SDS011;3777;48.722;8.110;2022-12-10T03:41:10;30.17;;;20.37;;
7471;SDS011;3777;48.722;8.110;2022-12-10T03:43:48;29.17;;;19.67;;
7471;SDS011;3777;48.722;8.110;2022-12-10T03:46:18;26.97;;;19.27;;
7471;SDS011;3777;48.722;8.110;2022-12-10T03:48:45;27.07;;;19.70;;
7471;SDS011;3777;48.722;8.110;2022-12-10T03:51:12;28.67;;;19.40;;
7471;SDS011;3777;48.722;8.110;2022-12-10T03:53:40;28.47;;;19.57;;
7471;SDS011;3777;48.722;8.110;2022-12-10T03:56:07;29.33;;;19.87;;
7471;SDS011;3777;48.722;8.110;2022-12-10T03:58:34;27.17;;;19.87;;
7471;SDS011;3777;48.722;8.110;2022-12-10T04:01:02;28.40;;;19.83;;
7471;SDS011;3777;48.722;8.110;2022-12-10T04:03:30;26.23;;;19.30;;
7471;SDS011;3777;48.722;8.110;2022-12-10T04:06:00;27.57;;;19.97;;
7471;SDS011;3777;48.722;8.110;2022-12-10T04:08:28;27.50;;;20.40;;
7471;SDS011;3777;48.722;8.110;2022-12-10T04:11:00;26.87;;;18.77;;
7471;SDS011;3777;48.722;8.110;2022-12-10T04:13:30;29.93;;;19.40;;
7471;SDS011;3777;48.722;8.110;2022-12-10T04:16:15;29.17;;;20.70;;
7471;SDS011;3777;48.722;8.110;2022-12-10T04:18:57;28.07;;;19.23;;
7471;SDS011;3777;48.722;8.110;2022-12-10T04:21:25;27.30;;;18.90;;
7471;SDS011;3777;48.722;8.110;2022-12-10T04:24:10;26.70;;;19.20;;
7471;SDS011;3777;48.722;8.110;2022-12-10T04:26:56;28.23;;;19.67;;
7471;SDS011;3777;48.722;8.110;2022-12-10T04:29:26;30.07;;;20.40;;
7471;SDS011;3777;48.722;8.110;2022-12-10T04:31:54;27.77;;;19.70;;
7471;SDS011;3777;48.722;8.110;2022-12-10T04:34:23;29.37;;;19.93;;
7471;SDS011;3777;48.722;8.110;2022-12-10T04:36:51;30.73;;;20.07;;
7471;SDS011;3777;48.722;8.110;2022-12-10T04:39:18;27.57;;;19.47;;
7471;SDS011;3777;48.722;8.110;2022-12-10T04:41:46;29.00;;;20.07;;
7471;SDS011;3777;48.722;8.110;2022-12-10T04:44:14;29.53;;;19.60;;
7471;SDS011;3777;48.722;8.110;2022-12-10T04:46:42;33.43;;;21.47;;
7471;SDS011;3777;48.722;8.110;2022-12-10T04:49:09;27.87;;;19.63;;
7471;SDS011;3777;48.722;8.110;2022-12-10T04:51:37;26.80;;;19.10;;
7471;SDS011;3777;48.722;8.110;2022-12-10T04:54:05;29.97;;;20.70;;
7471;SDS011;3777;48.722;8.110;2022-12-10T04:56:33;29.30;;;20.40;;
7471;SDS011;3777;48.722;8.110;2022-12-10T04:59:00;27.27;;;19.53;;
7471;SDS011;3777;48.722;8.110;2022-12-10T05:01:27;32.43;;;20.83;;
7471;SDS011;3777;48.722;8.110;2022-12-10T05:03:57;31.03;;;20.50;;
7471;SDS011;3777;48.722;8.110;2022-12-10T05:06:24;26.53;;;19.90;;
7471;SDS011;3777;48.722;8.110;2022-12-10T05:08:53;30.83;;;20.80;;
7471;SDS011;3777;48.722;8.110;2022-12-10T05:11:21;27.73;;;20.00;;
7471;SDS011;3777;48.722;8.110;2022-12-10T05:13:50;26.80;;;19.57;;
7471;SDS011;3777;48.722;8.110;2022-12-10T05:16:18;29.17;;;19.53;;
7471;SDS011;3777;48.722;8.110;2022-12-10T05:18:46;31.53;;;20.03;;
7471;SDS011;3777;48.722;8.110;2022-12-10T05:21:15;30.37;;;20.37;;
7471;SDS011;3777;48.722;8.110;2022-12-10T05:23:45;30.07;;;20.53;;
7471;SDS011;3777;48.722;8.110;2022-12-10T05:26:15;31.90;;;20.73;;
7471;SDS011;3777;48.722;8.110;2022-12-10T05:28:44;28.37;;;19.97;;
7471;SDS011;3777;48.722;8.110;2022-12-10T05:31:12;30.90;;;21.10;;
7471;SDS011;3777;48.722;8.110;2022-12-10T05:33:40;30.40;;;20.00;;
7471;SDS011;3777;48.722;8.110;2022-12-10T05:36:09;31.07;;;20.80;;
7471;SDS011;3777;48.722;8.110;2022-12-10T05:38:37;32.70;;;20.57;;
7471;SDS011;3777;48.722;8.110;2022-12-10T05:41:06;30.30;;;20.00;;
7471;SDS011;3777;48.722;8.110;2022-12-10T05:43:36;30.97;;;19.77;;
7471;SDS011;3777;48.722;8.110;2022-12-10T05:46:04;32.23;;;21.27;;
7471;SDS011;3777;48.722;8.110;2022-12-10T05:48:32;31.73;;;21.20;;
7471;SDS011;3777;48.722;8.110;2022-12-10T05:51:02;31.37;;;20.00;;
7471;SDS011;3777;48.722;8.110;2022-12-10T05:53:30;32.63;;;21.60;;
7471;SDS011;3777;48.722;8.110;2022-12-10T05:56:00;33.80;;;22.33;;
7471;SDS011;3777;48.722;8.110;2022-12-10T05:58:28;33.17;;;21.63;;
7471;SDS011;3777;48.722;8.110;2022-12-10T06:00:57;30.97;;;20.20;;
7471;SDS011;3777;48.722;8.110;2022-12-10T06:03:25;32.63;;;22.43;;
7471;SDS011;3777;48.722;8.110;2022-12-10T06:05:53;32.27;;;21.40;;
7471;SDS011;3777;48.722;8.110;2022-12-10T06:08:20;34.40;;;20.97;;
7471;SDS011;3777;48.722;8.110;2022-12-10T06:10:48;34.50;;;22.07;;
7471;SDS011;3777;48.722;8.110;2022-12-10T06:13:15;34.73;;;22.07;;
7471;SDS011;3777;48.722;8.110;2022-12-10T06:15:42;37.77;;;22.43;;
7471;SDS011;3777;48.722;8.110;2022-12-10T06:18:10;33.87;;;22.40;;
7471;SDS011;3777;48.722;8.110;2022-12-10T06:20:38;34.13;;;22.33;;
7471;SDS011;3777;48.722;8.110;2022-12-10T06:23:05;31.97;;;22.03;;
7471;SDS011;3777;48.722;8.110;2022-12-10T06:25:33;34.70;;;22.93;;
7471;SDS011;3777;48.722;8.110;2022-12-10T06:28:03;32.63;;;22.33;;
7471;SDS011;3777;48.722;8.110;2022-12-10T06:30:30;36.27;;;22.40;;
7471;SDS011;3777;48.722;8.110;2022-12-10T06:32:57;36.93;;;23.17;;
7471;SDS011;3777;48.722;8.110;2022-12-10T06:35:26;37.60;;;22.50;;
7471;SDS011;3777;48.722;8.110;2022-12-10T06:37:53;37.00;;;23.30;;
7471;SDS011;3777;48.722;8.110;2022-12-10T06:40:20;34.10;;;21.53;;
7471;SDS011;3777;48.722;8.110;2022-12-10T06:42:47;35.10;;;22.27;;
7471;SDS011;3777;48.722;8.110;2022-12-10T06:45:16;38.27;;;23.90;;
7471;SDS011;3777;48.722;8.110;2022-12-10T06:47:43;35.37;;;22.47;;
7471;SDS011;3777;48.722;8.110;2022-12-10T06:50:10;35.73;;;23.47;;
7471;SDS011;3777;48.722;8.110;2022-12-10T06:52:38;37.23;;;23.50;;
7471;SDS011;3777;48.722;8.110;2022-12-10T06:55:05;35.90;;;22.73;;
7471;SDS011;3777;48.722;8.110;2022-12-10T06:57:33;40.73;;;25.10;;
7471;SDS011;3777;48.722;8.110;2022-12-10T07:00:00;35.20;;;22.80;;
7471;SDS011;3777;48.722;8.110;2022-12-10T07:02:26;36.00;;;23.83;;
7471;SDS011;3777;48.722;8.110;2022-12-10T07:04:53;39.97;;;22.90;;
7471;SDS011;3777;48.722;8.110;2022-12-10T07:07:21;35.07;;;22.70;;
7471;SDS011;3777;48.722;8.110;2022-12-10T07:09:50;37.10;;;23.93;;
7471;SDS011;3777;48.722;8.110;2022-12-10T07:12:17;36.20;;;23.17;;
7471;SDS011;3777;48.722;8.110;2022-12-10T07:14:44;39.90;;;24.23;;
7471;SDS011;3777;48.722;8.110;2022-12-10T07:17:10;35.10;;;22.60;;
7471;SDS011;3777;48.722;8.110;2022-12-10T07:19:37;39.00;;;23.27;;
7471;SDS011;3777;48.722;8.110;2022-12-10T07:22:04;38.40;;;23.97;;
7471;SDS011;3777;48.722;8.110;2022-12-10T07:24:31;36.50;;;24.17;;
7471;SDS011;3777;48.722;8.110;2022-12-10T07:27:00;38.30;;;24.23;;
7471;SDS011;3777;48.722;8.110;2022-12-10T07:29:27;41.20;;;25.43;;
7471;SDS011;3777;48.722;8.110;2022-12-10T07:31:54;39.90;;;24.43;;
7471;SDS011;3777;48.722;8.110;2022-12-10T07:34:21;37.73;;;24.47;;
7471;SDS011;3777;48.722;8.110;2022-12-10T07:36:48;40.67;;;24.83;;
7471;SDS011;3777;48.722;8.110;2022-12-10T07:39:15;39.20;;;25.43;;
7471;SDS011;3777;48.722;8.110;2022-12-10T07:41:43;38.33;;;24.27;;
7471;SDS011;3777;48.722;8.110;2022-12-10T07:44:12;39.47;;;23.87;;
7471;SDS011;3777;48.722;8.110;2022-12-10T07:46:39;39.73;;;24.63;;
7471;SDS011;3777;48.722;8.110;2022-12-10T07:49:06;40.00;;;24.13;;
7471;SDS011;3777;48.722;8.110;2022-12-10T07:51:33;36.63;;;24.20;;
7471;SDS011;3777;48.722;8.110;2022-12-10T07:54:00;38.17;;;23.57;;
7471;SDS011;3777;48.722;8.110;2022-12-10T07:56:27;38.37;;;24.17;;
7471;SDS011;3777;48.722;8.110;2022-12-10T07:58:54;37.73;;;23.90;;
7471;SDS011;3777;48.722;8.110;2022-12-10T08:01:23;35.83;;;23.90;;
7471;SDS011;3777;48.722;8.110;2022-12-10T08:03:52;39.57;;;23.53;;
7471;SDS011;3777;48.722;8.110;2022-12-10T08:06:22;35.20;;;23.63;;
7471;SDS011;3777;48.722;8.110;2022-12-10T08:08:50;39.33;;;24.43;;
7471;SDS011;3777;48.722;8.110;2022-12-10T08:11:18;38.30;;;23.20;;
7471;SDS011;3777;48.722;8.110;2022-12-10T08:13:46;39.03;;;24.57;;
7471;SDS011;3777;48.722;8.110;2022-12-10T08:16:14;38.37;;;24.27;;
7471;SDS011;3777;48.722;8.110;2022-12-10T08:18:44;41.13;;;25.20;;
7471;SDS011;3777;48.722;8.110;2022-12-10T08:21:12;39.83;;;25.37;;
7471;SDS011;3777;48.722;8.110;2022-12-10T08:23:41;37.07;;;23.77;;
7471;SDS011;3777;48.722;8.110;2022-12-10T08:26:10;36.73;;;23.53;;
7471;SDS011;3777;48.722;8.110;2022-12-10T08:28:38;38.73;;;24.87;;
7471;SDS011;3777;48.722;8.110;2022-12-10T08:31:07;39.80;;;24.93;;
7471;SDS011;3777;48.722;8.110;2022-12-10T08:33:35;38.03;;;24.23;;
7471;SDS011;3777;48.722;8.110;2022-12-10T08:36:04;37.07;;;23.93;;
7471;SDS011;3777;48.722;8.110;2022-12-10T08:38:32;39.10;;;24.00;;
7471;SDS011;3777;48.722;8.110;2022-12-10T08:41:04;37.20;;;23.87;;
7471;SDS011;3777;48.722;8.110;2022-12-10T08:43:32;39.83;;;22.97;;
7471;SDS011;3777;48.722;8.110;2022-12-10T08:45:59;37.63;;;23.63;;
7471;SDS011;3777;48.722;8.110;2022-12-10T08:48:26;37.60;;;23.57;;
7471;SDS011;3777;48.722;8.110;2022-12-10T08:50:53;36.67;;;23.47;;
7471;SDS011;3777;48.722;8.110;2022-12-10T08:53:22;35.10;;;23.60;;
7471;SDS011;3777;48.722;8.110;2022-12-10T08:55:49;39.23;;;24.60;;
7471;SDS011;3777;48.722;8.110;2022-12-10T08:58:17;36.07;;;24.00;;
7471;SDS011;3777;48.722;8.110;2022-12-10T09:00:44;40.07;;;23.97;;
7471;SDS011;3777;48.722;8.110;2022-12-10T09:03:11;35.33;;;22.13;;
7471;SDS011;3777;48.722;8.110;2022-12-10T09:05:38;39.27;;;23.60;;
7471;SDS011;3777;48.722;8.110;2022-12-10T09:08:05;38.07;;;22.73;;
7471;SDS011;3777;48.722;8.110;2022-12-10T09:10:34;39.07;;;24.57;;
7471;SDS011;3777;48.722;8.110;2022-12-10T09:13:02;37.93;;;25.10;;
7471;SDS011;3777;48.722;8.110;2022-12-10T09:15:29;37.93;;;24.83;;
7471;SDS011;3777;48.722;8.110;2022-12-10T09:17:56;38.90;;;23.97;;
7471;SDS011;3777;48.722;8.110;2022-12-10T09:20:23;38.83;;;24.93;;
7471;SDS011;3777;48.722;8.110;2022-12-10T09:22:50;40.20;;;25.70;;
7471;SDS011;3777;48.722;8.110;2022-12-10T09:25:18;46.47;;;28.30;;
7471;SDS011;3777;48.722;8.110;2022-12-10T09:27:48;39.33;;;24.80;;
7471;SDS011;3777;48.722;8.110;2022-12-10T09:30:15;36.97;;;23.63;;
7471;SDS011;3777;48.722;8.110;2022-12-10T09:32:42;37.03;;;24.57;;
7471;SDS011;3777;48.722;8.110;2022-12-10T09:35:09;35.83;;;23.10;;
7471;SDS011;3777;48.722;8.110;2022-12-10T09:37:36;36.73;;;23.27;;
7471;SDS011;3777;48.722;8.110;2022-12-10T09:40:04;41.17;;;24.67;;
7471;SDS011;3777;48.722;8.110;2022-12-10T09:42:37;34.23;;;22.43;;
7471;SDS011;3777;48.722;8.110;2022-12-10T09:45:14;35.37;;;23.03;;
7471;SDS011;3777;48.722;8.110;2022-12-10T09:47:48;36.80;;;23.17;;
7471;SDS011;3777;48.722;8.110;2022-12-10T09:50:23;37.13;;;23.17;;
7471;SDS011;3777;48.722;8.110;2022-12-10T09:52:55;38.20;;;24.33;;
7471;SDS011;3777;48.722;8.110;2022-12-10T09:55:28;39.50;;;25.30;;
7471;SDS011;3777;48.722;8.110;2022-12-10T09:57:58;33.73;;;22.33;;
7471;SDS011;3777;48.722;8.110;2022-12-10T10:00:33;33.83;;;21.60;;
7471;SDS011;3777;48.722;8.110;2022-12-10T10:03:02;33.67;;;21.63;;
7471;SDS011;3777;48.722;8.110;2022-12-10T10:05:32;33.37;;;21.77;;
7471;SDS011;3777;48.722;8.110;2022-12-10T10:08:02;35.60;;;22.43;;
7471;SDS011;3777;48.722;8.110;2022-12-10T10:10:31;35.83;;;22.70;;
7471;SDS011;3777;48.722;8.110;2022-12-10T10:13:01;33.87;;;21.80;;
7471;SDS011;3777;48.722;8.110;2022-12-10T10:15:41;33.67;;;22.00;;
7471;SDS011;3777;48.722;8.110;2022-12-10T10:18:11;33.70;;;21.77;;
7471;SDS011;3777;48.722;8.110;2022-12-10T10:20:43;32.83;;;21.73;;
7471;SDS011;3777;48.722;8.110;2022-12-10T10:23:12;32.23;;;21.80;;
7471;SDS011;3777;48.722;8.110;2022-12-10T10:25:41;31.17;;;21.30;;
7471;SDS011;3777;48.722;8.110;2022-12-10T10:28:09;31.43;;;21.13;;
7471;SDS011;3777;48.722;8.110;2022-12-10T10:30:41;34.50;;;20.90;;
7471;SDS011;3777;48.722;8.110;2022-12-10T10:33:09;30.90;;;21.17;;
7471;SDS011;3777;48.722;8.110;2022-12-10T10:35:42;31.07;;;21.17;;
7471;SDS011;3777;48.722;8.110;2022-12-10T10:38:16;31.03;;;20.57;;
7471;SDS011;3777;48.722;8.110;2022-12-10T10:40:46;31.70;;;20.70;;
7471;SDS011;3777;48.722;8.110;2022-12-10T10:43:19;31.43;;;20.87;;
7471;SDS011;3777;48.722;8.110;2022-12-10T10:45:50;29.13;;;20.63;;
7471;SDS011;3777;48.722;8.110;2022-12-10T10:48:21;32.80;;;21.77;;
7471;SDS011;3777;48.722;8.110;2022-12-10T10:50:50;30.57;;;20.80;;
7471;SDS011;3777;48.722;8.110;2022-12-10T10:53:22;31.70;;;20.93;;
7471;SDS011;3777;48.722;8.110;2022-12-10T10:55:52;31.93;;;21.60;;
7471;SDS011;3777;48.722;8.110;2022-12-10T10:58:22;32.93;;;21.37;;
7471;SDS011;3777;48.722;8.110;2022-12-10T11:00:55;31.47;;;21.30;;
7471;SDS011;3777;48.722;8.110;2022-12-10T11:03:25;39.93;;;26.50;;
7471;SDS011;3777;48.722;8.110;2022-12-10T11:05:53;31.90;;;20.93;;
7471;SDS011;3777;48.722;8.110;2022-12-10T11:08:23;34.70;;;21.77;;
7471;SDS011;3777;48.722;8.110;2022-12-10T11:10:55;29.33;;;20.47;;
7471;SDS011;3777;48.722;8.110;2022-12-10T11:13:27;29.77;;;20.40;;
7471;SDS011;3777;48.722;8.110;2022-12-10T11:15:58;29.90;;;20.30;;
7471;SDS011;3777;48.722;8.110;2022-12-10T11:18:35;30.97;;;20.50;;
7471;SDS011;3777;48.722;8.110;2022-12-10T11:21:05;31.27;;;20.97;;
7471;SDS011;3777;48.722;8.110;2022-12-10T11:23:36;31.57;;;21.00;;
7471;SDS011;3777;48.722;8.110;2022-12-10T11:26:15;28.87;;;19.90;;
7471;SDS011;3777;48.722;8.110;2022-12-10T11:28:54;31.07;;;19.33;;
7471;SDS011;3777;48.722;8.110;2022-12-10T11:31:43;30.67;;;18.90;;
7471;SDS011;3777;48.722;8.110;2022-12-10T11:34:23;27.07;;;18.27;;
7471;SDS011;3777;48.722;8.110;2022-12-10T11:37:03;26.47;;;19.27;;
7471;SDS011;3777;48.722;8.110;2022-12-10T11:39:56;28.40;;;19.40;;
7471;SDS011;3777;48.722;8.110;2022-12-10T11:42:33;26.57;;;18.17;;
7471;SDS011;3777;48.722;8.110;2022-12-10T11:45:12;28.23;;;19.43;;
7471;SDS011;3777;48.722;8.110;2022-12-10T11:47:48;25.23;;;18.43;;
7471;SDS011;3777;48.722;8.110;2022-12-10T11:50:31;28.77;;;19.40;;
7471;SDS011;3777;48.722;8.110;2022-12-10T11:53:09;27.13;;;18.60;;
7471;SDS011;3777;48.722;8.110;2022-12-10T11:55:57;27.23;;;18.90;;
7471;SDS011;3777;48.722;8.110;2022-12-10T11:58:38;36.33;;;22.63;;
7471;SDS011;3777;48.722;8.110;2022-12-10T12:01:20;31.10;;;21.33;;
7471;SDS011;3777;48.722;8.110;2022-12-10T12:06:54;29.43;;;20.27;;
7471;SDS011;3777;48.722;8.110;2022-12-10T12:09:40;23.87;;;17.63;;
7471;SDS011;3777;48.722;8.110;2022-12-10T12:12:19;31.07;;;18.67;;
7471;SDS011;3777;48.722;8.110;2022-12-10T12:14:56;27.60;;;19.10;;
7471;SDS011;3777;48.722;8.110;2022-12-10T12:17:28;26.97;;;18.37;;
7471;SDS011;3777;48.722;8.110;2022-12-10T12:20:02;24.43;;;17.77;;
7471;SDS011;3777;48.722;8.110;2022-12-10T12:22:38;25.63;;;18.57;;
7471;SDS011;3777;48.722;8.110;2022-12-10T12:25:14;26.57;;;18.30;;
7471;SDS011;3777;48.722;8.110;2022-12-10T12:27:49;27.23;;;18.93;;
7471;SDS011;3777;48.722;8.110;2022-12-10T12:30:19;28.27;;;18.10;;
7471;SDS011;3777;48.722;8.110;2022-12-10T12:32:50;24.63;;;18.10;;
7471;SDS011;3777;48.722;8.110;2022-12-10T12:35:22;26.13;;;18.40;;
7471;SDS011;3777;48.722;8.110;2022-12-10T12:37:59;25.17;;;18.93;;
7471;SDS011;3777;48.722;8.110;2022-12-10T12:40:46;24.30;;;18.07;;
7471;SDS011;3777;48.722;8.110;2022-12-10T12:43:19;26.03;;;18.80;;
7471;SDS011;3777;48.722;8.110;2022-12-10T12:45:49;27.20;;;18.70;;
7471;SDS011;3777;48.722;8.110;2022-12-10T12:48:21;24.97;;;18.60;;
7471;SDS011;3777;48.722;8.110;2022-12-10T12:50:55;27.27;;;18.97;;
7471;SDS011;3777;48.722;8.110;2022-12-10T12:53:26;25.90;;;19.43;;
7471;SDS011;3777;48.722;8.110;2022-12-10T12:55:56;23.07;;;17.43;;
7471;SDS011;3777;48.722;8.110;2022-12-10T12:58:30;24.37;;;17.37;;
7471;SDS011;3777;48.722;8.110;2022-12-10T13:01:05;24.90;;;17.33;;
7471;SDS011;3777;48.722;8.110;2022-12-10T13:03:40;22.20;;;16.30;;
7471;SDS011;3777;48.722;8.110;2022-12-10T13:06:13;23.27;;;16.73;;
7471;SDS011;3777;48.722;8.110;2022-12-10T13:08:47;23.43;;;17.37;;
7471;SDS011;3777;48.722;8.110;2022-12-10T13:11:19;21.80;;;16.57;;
7471;SDS011;3777;48.722;8.110;2022-12-10T13:17:07;22.40;;;16.90;;
7471;SDS011;3777;48.722;8.110;2022-12-10T13:19:50;23.93;;;16.70;;
7471;SDS011;3777;48.722;8.110;2022-12-10T13:25:22;20.63;;;15.47;;
7471;SDS011;3777;48.722;8.110;2022-12-10T13:28:15;21.10;;;15.83;;
7471;SDS011;3777;48.722;8.110;2022-12-10T13:33:45;22.30;;;15.50;;
7471;SDS011;3777;48.722;8.110;2022-12-10T13:36:18;20.40;;;16.10;;
7471;SDS011;3777;48.722;8.110;2022-12-10T13:38:56;24.03;;;15.47;;
7471;SDS011;3777;48.722;8.110;2022-12-10T13:41:38;22.80;;;15.17;;
7471;SDS011;3777;48.722;8.110;2022-12-10T13:44:26;22.17;;;15.87;;
7471;SDS011;3777;48.722;8.110;2022-12-10T13:47:03;19.77;;;15.37;;
7471;SDS011;3777;48.722;8.110;2022-12-10T13:49:48;20.07;;;14.47;;
7471;SDS011;3777;48.722;8.110;2022-12-10T13:52:21;22.20;;;14.70;;
7471;SDS011;3777;48.722;8.110;2022-12-10T13:55:02;18.97;;;14.00;;
7471;SDS011;3777;48.722;8.110;2022-12-10T13:57:52;19.13;;;14.13;;
7471;SDS011;3777;48.722;8.110;2022-12-10T14:00:29;20.73;;;14.50;;
7471;SDS011;3777;48.722;8.110;2022-12-10T14:03:12;21.37;;;15.10;;
7471;SDS011;3777;48.722;8.110;2022-12-10T14:06:12;19.60;;;14.33;;
7471;SDS011;3777;48.722;8.110;2022-12-10T14:08:43;22.03;;;14.57;;
7471;SDS011;3777;48.722;8.110;2022-12-10T14:11:21;18.93;;;14.27;;
7471;SDS011;3777;48.722;8.110;2022-12-10T14:13:51;21.43;;;15.20;;
7471;SDS011;3777;48.722;8.110;2022-12-10T14:16:23;19.57;;;15.23;;
7471;SDS011;3777;48.722;8.110;2022-12-10T14:18:52;18.53;;;14.70;;
7471;SDS011;3777;48.722;8.110;2022-12-10T14:21:22;20.30;;;14.77;;
7471;SDS011;3777;48.722;8.110;2022-12-10T14:23:50;20.67;;;15.00;;
7471;SDS011;3777;48.722;8.110;2022-12-10T14:26:19;19.63;;;14.37;;
7471;SDS011;3777;48.722;8.110;2022-12-10T14:28:54;19.00;;;14.20;;
7471;SDS011;3777;48.722;8.110;2022-12-10T14:31:25;17.90;;;14.27;;
7471;SDS011;3777;48.722;8.110;2022-12-10T14:33:59;21.33;;;15.13;;
7471;SDS011;3777;48.722;8.110;2022-12-10T14:36:28;19.43;;;13.87;;
7471;SDS011;3777;48.722;8.110;2022-12-10T14:38:58;20.47;;;15.70;;
7471;SDS011;3777;48.722;8.110;2022-12-10T14:41:28;22.83;;;16.67;;
7471;SDS011;3777;48.722;8.110;2022-12-10T14:43:57;20.60;;;15.47;;
7471;SDS011;3777;48.722;8.110;2022-12-10T14:46:30;22.23;;;16.60;;
7471;SDS011;3777;48.722;8.110;2022-12-10T14:48:58;21.10;;;15.33;;
7471;SDS011;3777;48.722;8.110;2022-12-10T14:51:26;18.87;;;14.43;;
7471;SDS011;3777;48.722;8.110;2022-12-10T14:53:58;20.97;;;15.10;;
7471;SDS011;3777;48.722;8.110;2022-12-10T14:56:26;19.43;;;14.87;;
7471;SDS011;3777;48.722;8.110;2022-12-10T14:59:01;20.57;;;14.87;;
7471;SDS011;3777;48.722;8.110;2022-12-10T15:01:31;20.40;;;14.43;;
7471;SDS011;3777;48.722;8.110;2022-12-10T15:04:01;24.73;;;17.13;;
7471;SDS011;3777;48.722;8.110;2022-12-10T15:06:33;22.30;;;16.10;;
7471;SDS011;3777;48.722;8.110;2022-12-10T15:09:02;21.77;;;16.40;;
7471;SDS011;3777;48.722;8.110;2022-12-10T15:11:32;21.37;;;15.70;;
7471;SDS011;3777;48.722;8.110;2022-12-10T15:13:59;21.87;;;16.63;;
7471;SDS011;3777;48.722;8.110;2022-12-10T15:16:29;22.30;;;16.77;;
7471;SDS011;3777;48.722;8.110;2022-12-10T15:19:08;21.70;;;16.70;;
7471;SDS011;3777;48.722;8.110;2022-12-10T15:21:40;27.67;;;18.47;;
7471;SDS011;3777;48.722;8.110;2022-12-10T15:24:11;25.37;;;18.33;;